Jenkins, Minnesota
Current Conditions -  °F | °C
As of 11:53 AM on Thursday 30 Oct 2014 (Local Time) from KPWC Reporting Station
Overcast Overcast  
Wind Chill: 32°   Ceiling: 1700
Heat Index: 39°   Visibility: 10mi
Dew Point: 36°   Wind: 12mph
Humidity: 87%   Direction: 340°NNW
Pressure: 30.17"   Gusts: NA
Location:  46.65°N, 94.33°W
Report Text: KPWC 301653Z AUTO 34010KT 10SM BKN017 OVC023 04/02 A3017 RMK AO2
Loading
Personal Weather Stations






























Interactive Weather Map New forecast layout! Learn more

10-Day Weather Forecast

Advertisements
Track Severe Weather on mobile